sensor_id;sensor_type;location;lat;lon;timestamp;pressure;altitude;pressure_sealevel;temperature;humidity
60307;BME280;46155;52.364;6.580;2023-11-19T04:00:44;100330.25;;;10.75;100.00
60307;BME280;46155;52.364;6.580;2023-11-19T04:03:09;100331.06;;;10.74;100.00
60307;BME280;46155;52.364;6.580;2023-11-19T04:05:35;100330.16;;;10.73;100.00
60307;BME280;46155;52.364;6.580;2023-11-19T04:08:00;100322.03;;;10.68;100.00
60307;BME280;46155;52.364;6.580;2023-11-19T04:10:25;100321.88;;;10.65;100.00
60307;BME280;46155;52.364;6.580;2023-11-19T04:12:52;100322.69;;;10.64;100.00
60307;BME280;46155;52.364;6.580;2023-11-19T04:15:17;100314.66;;;10.61;100.00
60307;BME280;46155;52.364;6.580;2023-11-19T04:17:43;100307.28;;;10.54;100.00
60307;BME280;46155;52.364;6.580;2023-11-19T04:20:08;100306.97;;;10.48;100.00
60307;BME280;46155;52.364;6.580;2023-11-19T04:22:37;100305.22;;;10.48;100.00
60307;BME280;46155;52.364;6.580;2023-11-19T04:25:03;100308.44;;;10.43;100.00
60307;BME280;46155;52.364;6.580;2023-11-19T04:27:29;100314.31;;;10.39;100.00
60307;BME280;46155;52.364;6.580;2023-11-19T04:29:55;100307.91;;;10.33;100.00
60307;BME280;46155;52.364;6.580;2023-11-19T04:32:20;100304.28;;;10.31;100.00
60307;BME280;46155;52.364;6.580;2023-11-19T04:34:46;100318.22;;;10.30;100.00
60307;BME280;46155;52.364;6.580;2023-11-19T04:37:11;100317.41;;;10.31;100.00
60307;BME280;46155;52.364;6.580;2023-11-19T04:39:36;100321.75;;;10.31;100.00
60307;BME280;46155;52.364;6.580;2023-11-19T04:42:03;100325.03;;;10.27;100.00
60307;BME280;46155;52.364;6.580;2023-11-19T04:44:29;100332.81;;;10.25;100.00
60307;BME280;46155;52.364;6.580;2023-11-19T04:46:55;100337.84;;;10.21;100.00
60307;BME280;46155;52.364;6.580;2023-11-19T04:49:20;100346.50;;;10.20;100.00
60307;BME280;46155;52.364;6.580;2023-11-19T04:51:45;100345.78;;;10.22;100.00
60307;BME280;46155;52.364;6.580;2023-11-19T04:54:14;100354.63;;;10.24;100.00
60307;BME280;46155;52.364;6.580;2023-11-19T04:56:40;100360.03;;;10.27;100.00
60307;BME280;46155;52.364;6.580;2023-11-19T04:59:06;100360.03;;;10.27;100.00
60307;BME280;46155;52.364;6.580;2023-11-19T05:01:35;100352.09;;;10.26;100.00
60307;BME280;46155;52.364;6.580;2023-11-19T05:04:00;100343.41;;;10.27;100.00
60307;BME280;46155;52.364;6.580;2023-11-19T05:06:30;100343.41;;;10.27;100.00
60307;BME280;46155;52.364;6.580;2023-11-19T05:08:58;100342.66;;;10.29;100.00
60307;BME280;46155;52.364;6.580;2023-11-19T05:11:23;100335.84;;;10.33;100.00
60307;BME280;46155;52.364;6.580;2023-11-19T05:13:49;100331.34;;;10.30;100.00
60307;BME280;46155;52.364;6.580;2023-11-19T05:16:15;100339.22;;;10.30;100.00
60307;BME280;46155;52.364;6.580;2023-11-19T05:18:41;100344.44;;;10.30;100.00
60307;BME280;46155;52.364;6.580;2023-11-19T05:21:06;100354.22;;;10.33;100.00
60307;BME280;46155;52.364;6.580;2023-11-19T05:23:32;100348.91;;;10.31;100.00
60307;BME280;46155;52.364;6.580;2023-11-19T05:25:59;100337.59;;;10.32;100.00
60307;BME280;46155;52.364;6.580;2023-11-19T05:28:25;100336.59;;;10.30;100.00
60307;BME280;46155;52.364;6.580;2023-11-19T05:30:51;100348.09;;;10.32;100.00
60307;BME280;46155;52.364;6.580;2023-11-19T05:33:16;100348.97;;;10.33;100.00
60307;BME280;46155;52.364;6.580;2023-11-19T05:35:41;100340.94;;;10.30;100.00
60307;BME280;46155;52.364;6.580;2023-11-19T05:38:07;100348.81;;;10.30;100.00
60307;BME280;46155;52.364;6.580;2023-11-19T05:40:32;100353.31;;;10.32;100.00
60307;BME280;46155;52.364;6.580;2023-11-19T05:42:58;100355.16;;;10.33;100.00
60307;BME280;46155;52.364;6.580;2023-11-19T05:45:23;100356.75;;;10.31;100.00
60307;BME280;46155;52.364;6.580;2023-11-19T05:47:48;100366.44;;;10.32;100.00
60307;BME280;46155;52.364;6.580;2023-11-19T05:50:13;100364.63;;;10.31;100.00
60307;BME280;46155;52.364;6.580;2023-11-19T05:52:39;100369.06;;;10.32;100.00
60307;BME280;46155;52.364;6.580;2023-11-19T05:55:05;100364.72;;;10.33;100.00
60307;BME280;46155;52.364;6.580;2023-11-19T05:57:34;100374.16;;;10.29;100.00
60307;BME280;46155;52.364;6.580;2023-11-19T05:59:59;100367.91;;;10.27;100.00
60307;BME280;46155;52.364;6.580;2023-11-19T06:02:25;100368.63;;;10.25;100.00
60307;BME280;46155;52.364;6.580;2023-11-19T06:04:52;100371.19;;;10.23;100.00
60307;BME280;46155;52.364;6.580;2023-11-19T06:07:18;100367.75;;;10.24;100.00
60307;BME280;46155;52.364;6.580;2023-11-19T06:09:43;100372.75;;;10.20;100.00
60307;BME280;46155;52.364;6.580;2023-11-19T06:12:09;100375.28;;;10.18;100.00
60307;BME280;46155;52.364;6.580;2023-11-19T06:14:34;100373.81;;;10.23;100.00
60307;BME280;46155;52.364;6.580;2023-11-19T06:16:59;100375.44;;;10.21;100.00
60307;BME280;46155;52.364;6.580;2023-11-19T06:19:25;100375.44;;;10.21;100.00
60307;BME280;46155;52.364;6.580;2023-11-19T06:21:50;100365.75;;;10.20;100.00
60307;BME280;46155;52.364;6.580;2023-11-19T06:24:15;100368.31;;;10.19;100.00
60307;BME280;46155;52.364;6.580;2023-11-19T06:26:41;100372.66;;;10.18;100.00
60307;BME280;46155;52.364;6.580;2023-11-19T06:29:06;100370.19;;;10.21;100.00
60307;BME280;46155;52.364;6.580;2023-11-19T06:31:32;100360.53;;;10.20;100.00
60307;BME280;46155;52.364;6.580;2023-11-19T06:33:57;100371.81;;;10.19;100.00
60307;BME280;46155;52.364;6.580;2023-11-19T06:36:22;100366.56;;;10.19;100.00
60307;BME280;46155;52.364;6.580;2023-11-19T06:38:47;100363.13;;;10.20;100.00
60307;BME280;46155;52.364;6.580;2023-11-19T06:41:13;100373.56;;;10.19;100.00
60307;BME280;46155;52.364;6.580;2023-11-19T06:43:38;100376.91;;;10.16;100.00
60307;BME280;46155;52.364;6.580;2023-11-19T06:46:04;100370.59;;;10.12;100.00
60307;BME280;46155;52.364;6.580;2023-11-19T06:48:32;100375.84;;;10.12;100.00
60307;BME280;46155;52.364;6.580;2023-11-19T06:50:57;100375.13;;;10.15;100.00
60307;BME280;46155;52.364;6.580;2023-11-19T06:53:23;100377.53;;;10.12;100.00
60307;BME280;46155;52.364;6.580;2023-11-19T06:55:48;100374.94;;;10.12;100.00
60307;BME280;46155;52.364;6.580;2023-11-19T06:58:13;100375.78;;;10.11;100.00
60307;BME280;46155;52.364;6.580;2023-11-19T07:00:39;100384.38;;;10.08;100.00
60307;BME280;46155;52.364;6.580;2023-11-19T07:03:04;100374.59;;;10.06;100.00
60307;BME280;46155;52.364;6.580;2023-11-19T07:05:31;100385.09;;;10.06;100.00
60307;BME280;46155;52.364;6.580;2023-11-19T07:07:56;100388.34;;;10.02;100.00
60307;BME280;46155;52.364;6.580;2023-11-19T07:10:21;100397.22;;;10.04;100.00
60307;BME280;46155;52.364;6.580;2023-11-19T07:12:47;100389.53;;;10.07;100.00
60307;BME280;46155;52.364;6.580;2023-11-19T07:15:14;100387.78;;;10.07;100.00
60307;BME280;46155;52.364;6.580;2023-11-19T07:17:39;100390.34;;;10.06;100.00
60307;BME280;46155;52.364;6.580;2023-11-19T07:20:05;100394.69;;;10.05;100.00
60307;BME280;46155;52.364;6.580;2023-11-19T07:22:31;100398.19;;;10.06;100.00
60307;BME280;46155;52.364;6.580;2023-11-19T07:24:56;100385.97;;;10.06;100.00
60307;BME280;46155;52.364;6.580;2023-11-19T07:27:22;100399.19;;;10.08;100.00
60307;BME280;46155;52.364;6.580;2023-11-19T07:29:49;100397.47;;;10.08;100.00
60307;BME280;46155;52.364;6.580;2023-11-19T07:32:14;100396.56;;;10.08;100.00
60307;BME280;46155;52.364;6.580;2023-11-19T07:34:40;100407.88;;;10.07;100.00
60307;BME280;46155;52.364;6.580;2023-11-19T07:37:05;100414.19;;;10.10;100.00
60307;BME280;46155;52.364;6.580;2023-11-19T07:39:30;100406.88;;;10.05;100.00
60307;BME280;46155;52.364;6.580;2023-11-19T07:41:56;100411.47;;;10.09;100.00
60307;BME280;46155;52.364;6.580;2023-11-19T07:44:21;100427.22;;;10.09;100.00
60307;BME280;46155;52.364;6.580;2023-11-19T07:46:47;100425.41;;;10.08;100.00
60307;BME280;46155;52.364;6.580;2023-11-19T07:49:13;100430.00;;;10.12;100.00
60307;BME280;46155;52.364;6.580;2023-11-19T07:51:38;100430.09;;;10.13;100.00
60307;BME280;46155;52.364;6.580;2023-11-19T07:54:04;100434.63;;;10.16;100.00
60307;BME280;46155;52.364;6.580;2023-11-19T07:56:29;100434.63;;;10.16;100.00
60307;BME280;46155;52.364;6.580;2023-11-19T07:58:54;100437.31;;;10.17;100.00
60307;BME280;46155;52.364;6.580;2023-11-19T08:01:20;100437.59;;;10.22;100.00
60307;BME280;46155;52.364;6.580;2023-11-19T08:03:45;100445.63;;;10.25;100.00
60307;BME280;46155;52.364;6.580;2023-11-19T08:06:10;100445.81;;;10.28;100.00
60307;BME280;46155;52.364;6.580;2023-11-19T08:08:36;100439.75;;;10.29;100.00
60307;BME280;46155;52.364;6.580;2023-11-19T08:11:03;100440.72;;;10.31;100.00
60307;BME280;46155;52.364;6.580;2023-11-19T08:13:30;100445.88;;;10.30;100.00
60307;BME280;46155;52.364;6.580;2023-11-19T08:15:56;100452.22;;;10.33;100.00
60307;BME280;46155;52.364;6.580;2023-11-19T08:18:23;100448.59;;;10.31;100.00
60307;BME280;46155;52.364;6.580;2023-11-19T08:20:48;100441.94;;;10.37;100.00
60307;BME280;46155;52.364;6.580;2023-11-19T08:23:18;100451.94;;;10.44;100.00
60307;BME280;46155;52.364;6.580;2023-11-19T08:25:43;100454.56;;;10.44;100.00
60307;BME280;46155;52.364;6.580;2023-11-19T08:28:09;100453.13;;;10.49;100.00
60307;BME280;46155;52.364;6.580;2023-11-19T08:30:34;100445.03;;;10.46;100.00
60307;BME280;46155;52.364;6.580;2023-11-19T08:33:00;100449.56;;;10.48;100.00
60307;BME280;46155;52.364;6.580;2023-11-19T08:35:28;100445.25;;;10.49;100.00
60307;BME280;46155;52.364;6.580;2023-11-19T08:37:54;100444.47;;;10.51;100.00
60307;BME280;46155;52.364;6.580;2023-11-19T08:40:19;100439.78;;;10.46;100.00
60307;BME280;46155;52.364;6.580;2023-11-19T08:42:45;100437.38;;;10.49;100.00
60307;BME280;46155;52.364;6.580;2023-11-19T08:45:11;100440.97;;;10.51;100.00
60307;BME280;46155;52.364;6.580;2023-11-19T08:47:39;100430.63;;;10.54;100.00
60307;BME280;46155;52.364;6.580;2023-11-19T08:50:05;100430.78;;;10.57;100.00
60307;BME280;46155;52.364;6.580;2023-11-19T08:52:31;100435.22;;;10.58;100.00
60307;BME280;46155;52.364;6.580;2023-11-19T08:54:56;100443.28;;;10.61;100.00
60307;BME280;46155;52.364;6.580;2023-11-19T08:57:22;100440.00;;;10.65;100.00
60307;BME280;46155;52.364;6.580;2023-11-19T08:59:47;100432.44;;;10.72;100.00
60307;BME280;46155;52.364;6.580;2023-11-19T09:02:13;100436.88;;;10.73;100.00
60307;BME280;46155;52.364;6.580;2023-11-19T09:04:38;100445.94;;;10.78;100.00
60307;BME280;46155;52.364;6.580;2023-11-19T09:07:03;100439.84;;;10.79;100.00
60307;BME280;46155;52.364;6.580;2023-11-19T09:09:29;100441.47;;;10.77;100.00
60307;BME280;46155;52.364;6.580;2023-11-19T09:11:55;100438.19;;;10.81;100.00
60307;BME280;46155;52.364;6.580;2023-11-19T09:14:20;100431.88;;;10.77;100.00
60307;BME280;46155;52.364;6.580;2023-11-19T09:16:51;100443.38;;;10.79;100.00
60307;BME280;46155;52.364;6.580;2023-11-19T09:19:16;100440.75;;;10.79;100.00
60307;BME280;46155;52.364;6.580;2023-11-19T09:21:42;100448.22;;;10.88;100.00
60307;BME280;46155;52.364;6.580;2023-11-19T09:24:08;100445.59;;;10.88;100.00
60307;BME280;46155;52.364;6.580;2023-11-19T09:26:33;100448.22;;;10.88;100.00
60307;BME280;46155;52.364;6.580;2023-11-19T09:28:59;100442.00;;;10.86;100.00
60307;BME280;46155;52.364;6.580;2023-11-19T09:31:25;100446.31;;;10.85;100.00
60307;BME280;46155;52.364;6.580;2023-11-19T09:33:50;100444.63;;;10.86;100.00
60307;BME280;46155;52.364;6.580;2023-11-19T09:36:15;100452.56;;;10.88;100.00
60307;BME280;46155;52.364;6.580;2023-11-19T09:38:42;100456.25;;;10.91;100.00
60307;BME280;46155;52.364;6.580;2023-11-19T09:41:07;100452.81;;;10.92;100.00
60307;BME280;46155;52.364;6.580;2023-11-19T09:43:35;100444.34;;;10.98;100.00
60307;BME280;46155;52.364;6.580;2023-11-19T09:46:05;100450.50;;;10.98;100.00
60307;BME280;46155;52.364;6.580;2023-11-19T09:48:33;100445.53;;;11.03;100.00
60307;BME280;46155;52.364;6.580;2023-11-19T09:51:01;100447.56;;;11.09;100.00
60307;BME280;46155;52.364;6.580;2023-11-19T09:53:27;100450.34;;;11.12;100.00
60307;BME280;46155;52.364;6.580;2023-11-19T09:55:53;100449.53;;;11.13;100.00
60307;BME280;46155;52.364;6.580;2023-11-19T09:58:18;100451.31;;;11.14;100.00
60307;BME280;46155;52.364;6.580;2023-11-19T10:00:43;100438.34;;;11.17;100.00
60307;BME280;46155;52.364;6.580;2023-11-19T10:03:11;100446.16;;;11.15;100.00
60307;BME280;46155;52.364;6.580;2023-11-19T10:05:37;100438.19;;;11.14;100.00
60307;BME280;46155;52.364;6.580;2023-11-19T10:08:04;100439.13;;;11.14;100.00
60307;BME280;46155;52.364;6.580;2023-11-19T10:10:30;100445.25;;;11.15;100.00
60307;BME280;46155;52.364;6.580;2023-11-19T10:15:24;100443.94;;;11.23;100.00
60307;BME280;46155;52.364;6.580;2023-11-19T10:17:51;100439.81;;;11.28;100.00
60307;BME280;46155;52.364;6.580;2023-11-19T10:20:16;100435.41;;;11.27;100.00
60307;BME280;46155;52.364;6.580;2023-11-19T10:22:42;100440.81;;;11.30;100.00
60307;BME280;46155;52.364;6.580;2023-11-19T10:25:23;100435.69;;;11.33;100.00
60307;BME280;46155;52.364;6.580;2023-11-19T10:27:53;100439.47;;;11.39;100.00
60307;BME280;46155;52.364;6.580;2023-11-19T10:30:26;100422.63;;;11.35;100.00
60307;BME280;46155;52.364;6.580;2023-11-19T10:33:11;100416.19;;;11.46;100.00
60307;BME280;46155;52.364;6.580;2023-11-19T10:35:55;100421.59;;;11.49;100.00
60307;BME280;46155;52.364;6.580;2023-11-19T10:38:22;100427.28;;;11.57;100.00
60307;BME280;46155;52.364;6.580;2023-11-19T10:40:48;100423.91;;;11.60;100.00
60307;BME280;46155;52.364;6.580;2023-11-19T10:43:14;100412.19;;;11.71;100.00
60307;BME280;46155;52.364;6.580;2023-11-19T10:45:39;100410.59;;;11.75;100.00
60307;BME280;46155;52.364;6.580;2023-11-19T10:48:06;100420.91;;;11.70;100.00
60307;BME280;46155;52.364;6.580;2023-11-19T10:50:36;100414.06;;;11.74;100.00
60307;BME280;46155;52.364;6.580;2023-11-19T10:53:02;100422.94;;;11.76;100.00
60307;BME280;46155;52.364;6.580;2023-11-19T10:55:38;100414.75;;;11.69;100.00
60307;BME280;46155;52.364;6.580;2023-11-19T10:58:10;100405.94;;;11.69;100.00
60307;BME280;46155;52.364;6.580;2023-11-19T11:00:39;100416.53;;;11.70;100.00
60307;BME280;46155;52.364;6.580;2023-11-19T11:03:11;100422.72;;;11.71;100.00
60307;BME280;46155;52.364;6.580;2023-11-19T11:05:37;100419.09;;;11.69;100.00
60307;BME280;46155;52.364;6.580;2023-11-19T11:08:06;100415.66;;;11.70;100.00
60307;BME280;46155;52.364;6.580;2023-11-19T11:10:32;100418.06;;;11.65;100.00
60307;BME280;46155;52.364;6.580;2023-11-19T11:13:02;100418.06;;;11.65;100.00
60307;BME280;46155;52.364;6.580;2023-11-19T11:15:30;100420.75;;;11.67;100.00
60307;BME280;46155;52.364;6.580;2023-11-19T11:17:59;100415.56;;;11.68;100.00
60307;BME280;46155;52.364;6.580;2023-11-19T11:20:28;100409.16;;;11.63;100.00
60307;BME280;46155;52.364;6.580;2023-11-19T11:28:35;100413.22;;;11.57;100.00
60307;BME280;46155;52.364;6.580;2023-11-19T11:31:12;100398.34;;;11.57;100.00
60307;BME280;46155;52.364;6.580;2023-11-19T11:36:31;100413.97;;;11.54;100.00
60307;BME280;46155;52.364;6.580;2023-11-19T11:39:03;100413.06;;;11.53;100.00
60307;BME280;46155;52.364;6.580;2023-11-19T11:41:32;100403.63;;;11.57;100.00
60307;BME280;46155;52.364;6.580;2023-11-19T11:43:58;100405.84;;;11.49;100.00
60307;BME280;46155;52.364;6.580;2023-11-19T11:49:07;100407.56;;;11.49;100.00
60307;BME280;46155;52.364;6.580;2023-11-19T11:54:11;100396.53;;;11.56;100.00
60307;BME280;46155;52.364;6.580;2023-11-19T11:56:37;100403.16;;;11.66;100.00
60307;BME280;46155;52.364;6.580;2023-11-19T11:59:03;100401.69;;;11.71;100.00
60307;BME280;46155;52.364;6.580;2023-11-19T12:01:32;100396.50;;;11.73;100.00
60307;BME280;46155;52.364;6.580;2023-11-19T12:03:58;100385.97;;;11.73;100.00
60307;BME280;46155;52.364;6.580;2023-11-19T12:06:23;100385.72;;;11.68;100.00
60307;BME280;46155;52.364;6.580;2023-11-19T12:08:49;100398.81;;;11.66;100.00
60307;BME280;46155;52.364;6.580;2023-11-19T12:11:16;100388.59;;;11.54;100.00
60307;BME280;46155;52.364;6.580;2023-11-19T12:13:55;100387.03;;;11.58;100.00
60307;BME280;46155;52.364;6.580;2023-11-19T12:16:23;100392.28;;;11.58;100.00
60307;BME280;46155;52.364;6.580;2023-11-19T12:18:48;100373.47;;;11.50;100.00
60307;BME280;46155;52.364;6.580;2023-11-19T12:21:32;100371.16;;;11.39;100.00
60307;BME280;46155;52.364;6.580;2023-11-19T12:23:59;100376.59;;;11.25;100.00
60307;BME280;46155;52.364;6.580;2023-11-19T12:26:37;100371.69;;;11.15;100.00
60307;BME280;46155;52.364;6.580;2023-11-19T12:29:02;100378.41;;;11.10;100.00
60307;BME280;46155;52.364;6.580;2023-11-19T12:31:31;100373.16;;;11.10;100.00
60307;BME280;46155;52.364;6.580;2023-11-19T12:33:56;100377.91;;;11.17;100.00
60307;BME280;46155;52.364;6.580;2023-11-19T12:36:22;100378.19;;;11.22;100.00
60307;BME280;46155;52.364;6.580;2023-11-19T12:38:48;100379.38;;;11.28;100.00
60307;BME280;46155;52.364;6.580;2023-11-19T12:41:13;100373.38;;;11.31;100.00
60307;BME280;46155;52.364;6.580;2023-11-19T12:43:42;100381.19;;;11.29;100.00
60307;BME280;46155;52.364;6.580;2023-11-19T12:46:21;100377.59;;;11.27;100.00
60307;BME280;46155;52.364;6.580;2023-11-19T12:48:48;100380.88;;;11.23;100.00
60307;BME280;46155;52.364;6.580;2023-11-19T12:51:13;100394.81;;;11.22;100.00
60307;BME280;46155;52.364;6.580;2023-11-19T12:53:57;100393.00;;;11.21;100.00
60307;BME280;46155;52.364;6.580;2023-11-19T12:56:23;100383.34;;;11.20;100.00
60307;BME280;46155;52.364;6.580;2023-11-19T12:58:49;100386.13;;;11.23;100.00
60307;BME280;46155;52.364;6.580;2023-11-19T13:01:17;100394.81;;;11.22;100.00
60307;BME280;46155;52.364;6.580;2023-11-19T13:03:43;100386.13;;;11.23;100.00
60307;BME280;46155;52.364;6.580;2023-11-19T13:06:10;100382.50;;;11.21;100.00
60307;BME280;46155;52.364;6.580;2023-11-19T13:08:46;100384.16;;;11.19;100.00
60307;BME280;46155;52.364;6.580;2023-11-19T13:11:30;100375.28;;;11.17;100.00
60307;BME280;46155;52.364;6.580;2023-11-19T13:14:08;100379.94;;;11.23;100.00
60307;BME280;46155;52.364;6.580;2023-11-19T13:16:36;100378.31;;;11.25;100.00
60307;BME280;46155;52.364;6.580;2023-11-19T13:19:01;100384.63;;;11.28;100.00
60307;BME280;46155;52.364;6.580;2023-11-19T13:21:28;100386.28;;;11.26;100.00
60307;BME280;46155;52.364;6.580;2023-11-19T13:23:56;100375.47;;;11.20;100.00
60307;BME280;46155;52.364;6.580;2023-11-19T13:26:21;100380.72;;;11.20;100.00
60307;BME280;46155;52.364;6.580;2023-11-19T13:28:47;100377.91;;;11.17;100.00
60307;BME280;46155;52.364;6.580;2023-11-19T13:31:12;100375.97;;;11.13;100.00
60307;BME280;46155;52.364;6.580;2023-11-19T13:33:37;100383.53;;;11.07;100.00
60307;BME280;46155;52.364;6.580;2023-11-19T13:36:04;100369.28;;;11.01;100.00
60307;BME280;46155;52.364;6.580;2023-11-19T13:38:33;100368.19;;;10.98;100.00
60307;BME280;46155;52.364;6.580;2023-11-19T13:41:00;100362.94;;;10.98;100.00
60307;BME280;46155;52.364;6.580;2023-11-19T13:43:26;100370.75;;;10.96;100.00
60307;BME280;46155;52.364;6.580;2023-11-19T13:45:53;100368.94;;;10.95;100.00
60307;BME280;46155;52.364;6.580;2023-11-19T13:48:19;100374.19;;;10.95;100.00
60307;BME280;46155;52.364;6.580;2023-11-19T13:50:44;100370.59;;;10.93;100.00
60307;BME280;46155;52.364;6.580;2023-11-19T13:53:10;100375.84;;;10.93;100.00
60307;BME280;46155;52.364;6.580;2023-11-19T13:55:35;100360.75;;;10.89;100.00
60307;BME280;46155;52.364;6.580;2023-11-19T13:58:01;100374.38;;;10.82;100.00
60307;BME280;46155;52.364;6.580;2023-11-19T14:00:26;100368.28;;;10.83;100.00
60307;BME280;46155;52.364;6.580;2023-11-19T14:02:51;100362.88;;;10.80;100.00
60307;BME280;46155;52.364;6.580;2023-11-19T14:05:17;100360.91;;;10.76;100.00
60307;BME280;46155;52.364;6.580;2023-11-19T14:07:43;100358.03;;;10.71;100.00
60307;BME280;46155;52.364;6.580;2023-11-19T14:10:09;100371.25;;;10.73;100.00
60307;BME280;46155;52.364;6.580;2023-11-19T14:12:36;100363.13;;;10.68;100.00
60307;BME280;46155;52.364;6.580;2023-11-19T14:15:06;100363.28;;;10.71;100.00
60307;BME280;46155;52.364;6.580;2023-11-19T14:17:32;100369.44;;;10.72;100.00
60307;BME280;46155;52.364;6.580;2023-11-19T14:19:58;100369.44;;;10.72;100.00
60307;BME280;46155;52.364;6.580;2023-11-19T14:22:24;100366.72;;;10.70;100.00
60307;BME280;46155;52.364;6.580;2023-11-19T14:24:50;100364.19;;;10.72;100.00
60307;BME280;46155;52.364;6.580;2023-11-19T14:27:15;100365.91;;;10.71;100.00
60307;BME280;46155;52.364;6.580;2023-11-19T14:29:42;100367.72;;;10.72;100.00
60307;BME280;46155;52.364;6.580;2023-11-19T14:32:07;100370.19;;;10.69;100.00
60307;BME280;46155;52.364;6.580;2023-11-19T14:34:32;100359.63;;;10.67;100.00
60307;BME280;46155;52.364;6.580;2023-11-19T14:36:58;100371.09;;;10.70;100.00
60307;BME280;46155;52.364;6.580;2023-11-19T14:39:24;100368.38;;;10.68;100.00
60307;BME280;46155;52.364;6.580;2023-11-19T14:41:50;100366.50;;;10.65;100.00
60307;BME280;46155;52.364;6.580;2023-11-19T14:44:16;100361.31;;;10.67;100.00
60307;BME280;46155;52.364;6.580;2023-11-19T14:46:42;100370.00;;;10.66;100.00
60307;BME280;46155;52.364;6.580;2023-11-19T14:49:08;100367.31;;;10.64;100.00
60307;BME280;46155;52.364;6.580;2023-11-19T14:51:37;100366.34;;;10.62;100.00
60307;BME280;46155;52.364;6.580;2023-11-19T14:54:05;100371.50;;;10.61;100.00
60307;BME280;46155;52.364;6.580;2023-11-19T14:56:31;100353.63;;;10.54;100.00
60307;BME280;46155;52.364;6.580;2023-11-19T14:58:56;100358.88;;;10.54;100.00
60307;BME280;46155;52.364;6.580;2023-11-19T15:01:22;100363.19;;;10.53;100.00
60307;BME280;46155;52.364;6.580;2023-11-19T15:03:47;100358.72;;;10.50;100.00
60307;BME280;46155;52.364;6.580;2023-11-19T15:06:12;100351.56;;;10.48;100.00
60307;BME280;46155;52.364;6.580;2023-11-19T15:08:38;100355.09;;;10.48;100.00
60307;BME280;46155;52.364;6.580;2023-11-19T15:11:03;100361.25;;;10.49;100.00
60307;BME280;46155;52.364;6.580;2023-11-19T15:13:31;100366.66;;;10.52;100.00
60307;BME280;46155;52.364;6.580;2023-11-19T15:15:57;100370.41;;;10.57;100.00
60307;BME280;46155;52.364;6.580;2023-11-19T15:18:22;100354.34;;;10.51;100.00
60307;BME280;46155;52.364;6.580;2023-11-19T15:20:48;100364.69;;;10.48;100.00
60307;BME280;46155;52.364;6.580;2023-11-19T15:23:14;100360.41;;;10.50;100.00
60307;BME280;46155;52.364;6.580;2023-11-19T15:25:40;100366.31;;;10.46;100.00
60307;BME280;46155;52.364;6.580;2023-11-19T15:28:06;100371.56;;;10.46;100.00
60307;BME280;46155;52.364;6.580;2023-11-19T15:30:31;100371.75;;;10.49;100.00
60307;BME280;46155;52.364;6.580;2023-11-19T15:32:56;100367.41;;;10.49;100.00
60307;BME280;46155;52.364;6.580;2023-11-19T15:35:22;100373.53;;;10.50;100.00
60307;BME280;46155;52.364;6.580;2023-11-19T15:37:47;100373.38;;;10.47;100.00
60307;BME280;46155;52.364;6.580;2023-11-19T15:40:13;100372.41;;;10.45;100.00
60307;BME280;46155;52.364;6.580;2023-11-19T15:42:39;100370.69;;;10.45;100.00
60307;BME280;46155;52.364;6.580;2023-11-19T15:45:05;100369.94;;;10.48;100.00
60307;BME280;46155;52.364;6.580;2023-11-19T15:47:35;100374.03;;;10.43;100.00
60307;BME280;46155;52.364;6.580;2023-11-19T15:50:04;100375.75;;;10.42;100.00
60307;BME280;46155;52.364;6.580;2023-11-19T15:52:30;100373.94;;;10.41;100.00
60307;BME280;46155;52.364;6.580;2023-11-19T15:54:56;100365.09;;;10.39;100.00
60307;BME280;46155;52.364;6.580;2023-11-19T15:57:22;100358.78;;;10.36;100.00
60307;BME280;46155;52.364;6.580;2023-11-19T15:59:47;100362.22;;;10.34;100.00
60307;BME280;46155;52.364;6.580;2023-11-19T16:02:16;100359.78;;;10.38;100.00
60307;BME280;46155;52.364;6.580;2023-11-19T16:04:41;100358.84;;;10.37;100.00
60307;BME280;46155;52.364;6.580;2023-11-19T16:07:07;100357.72;;;10.65;100.00
60307;BME280;46155;52.364;6.580;2023-11-19T16:09:32;100357.00;;;10.67;100.00
60307;BME280;46155;52.364;6.580;2023-11-19T16:11:58;100355.75;;;10.61;100.00
60307;BME280;46155;52.364;6.580;2023-11-19T16:14:24;100344.59;;;10.48;100.00
60307;BME280;46155;52.364;6.580;2023-11-19T16:16:49;100356.16;;;10.52;100.00
60307;BME280;46155;52.364;6.580;2023-11-19T16:19:15;100359.53;;;10.49;100.00
60307;BME280;46155;52.364;6.580;2023-11-19T16:21:41;100344.03;;;10.38;100.00
60307;BME280;46155;52.364;6.580;2023-11-19T16:24:06;100356.00;;;10.49;100.00
60307;BME280;46155;52.364;6.580;2023-11-19T16:26:32;100358.63;;;10.49;100.00
60307;BME280;46155;52.364;6.580;2023-11-19T16:29:00;100365.50;;;10.47;100.00
60307;BME280;46155;52.364;6.580;2023-11-19T16:31:26;100362.72;;;10.44;100.00
60307;BME280;46155;52.364;6.580;2023-11-19T16:33:51;100359.94;;;10.41;100.00
60307;BME280;46155;52.364;6.580;2023-11-19T16:36:16;100348.44;;;10.39;100.00
60307;BME280;46155;52.364;6.580;2023-11-19T16:38:42;100365.00;;;10.54;100.00
60307;BME280;46155;52.364;6.580;2023-11-19T16:41:08;100356.75;;;10.46;100.00
60307;BME280;46155;52.364;6.580;2023-11-19T16:43:34;100369.63;;;10.58;100.00
60307;BME280;46155;52.364;6.580;2023-11-19T16:45:59;100369.44;;;10.55;100.00
60307;BME280;46155;52.364;6.580;2023-11-19T16:48:24;100372.06;;;10.55;100.00
60307;BME280;46155;52.364;6.580;2023-11-19T16:50:50;100370.56;;;10.60;100.00
60307;BME280;46155;52.364;6.580;2023-11-19T16:53:16;100362.06;;;10.64;100.00